createdAt,value
2023-05-10T00:01:42.470Z,100497.81
2023-05-10T00:04:09.336Z,100499.09
2023-05-10T00:06:36.142Z,100497.34
2023-05-10T00:09:03.104Z,100498.34
2023-05-10T00:11:29.940Z,100491.06
2023-05-10T00:13:56.829Z,100494.75
2023-05-10T00:16:23.728Z,100489.50
2023-05-10T00:18:50.527Z,100492.44
2023-05-10T00:21:17.314Z,100490.72
2023-05-10T00:23:44.077Z,100492.44
2023-05-10T00:26:11.166Z,100501.53
2023-05-10T00:28:39.435Z,100493.69
2023-05-10T00:31:06.294Z,100493.81
2023-05-10T00:33:33.119Z,100496.66
2023-05-10T00:36:00.003Z,100488.78
2023-05-10T00:38:26.814Z,100488.94
2023-05-10T00:40:53.693Z,100486.34
2023-05-10T00:43:28.233Z,100486.34
2023-05-10T00:45:56.010Z,100480.91
2023-05-10T00:48:23.501Z,100482.91
2023-05-10T00:50:50.449Z,100478.47
2023-05-10T00:53:17.950Z,100479.44
2023-05-10T00:55:44.948Z,100481.41
2023-05-10T00:58:11.851Z,100483.38
2023-05-10T01:00:42.447Z,100487.09
2023-05-10T01:03:09.444Z,100491.63
2023-05-10T01:05:36.342Z,100482.78
2023-05-10T01:08:03.734Z,100483.66
2023-05-10T01:10:31.827Z,100477.97
2023-05-10T01:13:01.475Z,100488.81
2023-05-10T01:15:28.639Z,100479.72
2023-05-10T01:17:57.542Z,100483.16
2023-05-10T01:20:26.222Z,100492.25
2023-05-10T01:23:44.087Z,100490.53
2023-05-10T01:26:32.683Z,100497.66
2023-05-10T01:29:26.541Z,100494.94
2023-05-10T01:32:21.594Z,100491.38
2023-05-10T01:34:59.534Z,100488.81
2023-05-10T01:37:42.400Z,100495.94
2023-05-10T01:40:30.468Z,100487.94
2023-05-10T01:43:06.246Z,100486.81
2023-05-10T01:45:50.616Z,100485.13
2023-05-10T01:48:20.879Z,100494.22
2023-05-10T01:50:50.173Z,100495.06
2023-05-10T01:53:21.298Z,100492.25
2023-05-10T01:55:53.533Z,100493.97
2023-05-10T01:58:36.251Z,100488.56
2023-05-10T02:01:07.097Z,100501.69
2023-05-10T02:03:37.971Z,100506.03
2023-05-10T02:06:06.775Z,100505.03
2023-05-10T02:08:38.001Z,100498.63
2023-05-10T02:11:06.715Z,100498.63
2023-05-10T02:13:38.405Z,100500.34
2023-05-10T02:16:07.839Z,100505.75
2023-05-10T02:18:37.642Z,100507.50
2023-05-10T02:21:05.628Z,100510.94
2023-05-10T02:23:33.025Z,100509.22
2023-05-10T02:26:02.879Z,100511.16
2023-05-10T02:28:33.543Z,100506.75
2023-05-10T02:31:01.598Z,100520.28
2023-05-10T02:33:30.915Z,100511.16
2023-05-10T02:35:58.234Z,100515.59
2023-05-10T02:38:27.810Z,100516.59
2023-05-10T02:40:57.642Z,100513.63
2023-05-10T02:43:26.711Z,100520.78
2023-05-10T02:45:53.807Z,100517.81
2023-05-10T02:48:20.744Z,100522.38
2023-05-10T02:50:53.328Z,100510.44
2023-05-10T02:53:29.604Z,100505.88
2023-05-10T02:56:01.803Z,100515.84
2023-05-10T02:58:28.690Z,100505.03
2023-05-10T03:00:55.584Z,100513.88
2023-05-10T03:03:22.402Z,100510.16
2023-05-10T03:05:51.175Z,100513.88
2023-05-10T03:08:18.087Z,100518.16
2023-05-10T03:11:31.527Z,100512.03
2023-05-10T03:14:28.218Z,100503.88
2023-05-10T03:17:08.210Z,100511.00
2023-05-10T03:19:56.619Z,100515.34
2023-05-10T03:22:38.229Z,100516.78
2023-05-10T03:25:11.855Z,100523.06
2023-05-10T03:27:43.676Z,100519.50
2023-05-10T03:30:14.541Z,100521.97
2023-05-10T03:32:42.301Z,100526.66
2023-05-10T03:35:14.325Z,100521.97
2023-05-10T03:37:41.856Z,100529.09
2023-05-10T03:40:11.005Z,100528.97
2023-05-10T03:42:40.350Z,100529.81
2023-05-10T03:45:08.593Z,100535.22
2023-05-10T03:47:35.555Z,100532.53
2023-05-10T03:50:03.403Z,100535.00
2023-05-10T03:52:30.486Z,100541.13
2023-05-10T03:54:57.332Z,100540.16
2023-05-10T03:57:24.730Z,100538.44
2023-05-10T03:59:51.630Z,100544.56
2023-05-10T04:02:18.491Z,100545.47
2023-05-10T04:04:45.366Z,100550.00
2023-05-10T04:07:12.206Z,100544.56
2023-05-10T04:09:39.003Z,100551.72
2023-05-10T04:12:07.119Z,100550.00
2023-05-10T04:14:35.245Z,100550.88
2023-05-10T04:17:03.120Z,100550.88
2023-05-10T04:19:33.248Z,100547.28
2023-05-10T04:22:00.699Z,100551.00
2023-05-10T04:24:27.571Z,100553.72
2023-05-10T04:26:57.777Z,100554.56
2023-05-10T04:29:25.174Z,100558.13
2023-05-10T04:31:52.022Z,100551.72
2023-05-10T04:34:19.012Z,100556.19
2023-05-10T04:36:45.784Z,100557.03
2023-05-10T04:39:12.613Z,100561.59
2023-05-10T04:41:39.627Z,100560.59
2023-05-10T04:44:07.168Z,100552.47
2023-05-10T04:46:34.293Z,100561.44
2023-05-10T04:49:01.172Z,100569.72
2023-05-10T04:51:28.011Z,100558.28
2023-05-10T04:54:05.451Z,100561.13
2023-05-10T04:56:33.045Z,100561.34
2023-05-10T04:58:59.918Z,100568.50
2023-05-10T05:01:42.894Z,100566.78
2023-05-10T05:04:09.699Z,100568.03
2023-05-10T05:06:36.600Z,100565.81
2023-05-10T05:09:03.550Z,100577.16
2023-05-10T05:11:31.173Z,100580.38
2023-05-10T05:14:00.180Z,100580.50
2023-05-10T05:16:27.728Z,100584.28
2023-05-10T05:18:54.665Z,100582.81
2023-05-10T05:21:22.389Z,100587.41
2023-05-10T05:23:49.300Z,100583.56
2023-05-10T05:26:16.203Z,100588.00
2023-05-10T05:28:43.153Z,100588.00
2023-05-10T05:31:10.579Z,100587.28
2023-05-10T05:33:37.686Z,100587.28
2023-05-10T05:36:06.789Z,100585.31
2023-05-10T05:38:33.775Z,100588.84
2023-05-10T05:41:00.673Z,100590.72
2023-05-10T05:43:27.732Z,100592.41
2023-05-10T05:45:55.041Z,100590.47
2023-05-10T05:48:22.235Z,100597.34
2023-05-10T05:50:49.121Z,100592.56
2023-05-10T05:53:16.754Z,100595.88
2023-05-10T05:55:57.001Z,100587.22
2023-05-10T05:58:25.194Z,100588.69
2023-05-10T06:00:53.075Z,100589.06
2023-05-10T06:03:21.054Z,100596.81
2023-05-10T06:05:48.191Z,100595.56
2023-05-10T06:08:15.052Z,100603.19
2023-05-10T06:10:41.885Z,100595.53
2023-05-10T06:13:08.701Z,100605.25
2023-05-10T06:15:35.688Z,100611.28
2023-05-10T06:18:02.577Z,100616.34
2023-05-10T06:20:29.741Z,100621.34
2023-05-10T06:22:56.580Z,100624.56
2023-05-10T06:25:24.087Z,100628.00
2023-05-10T06:27:56.375Z,100628.88
2023-05-10T06:30:28.339Z,100630.47
2023-05-10T06:32:55.974Z,100632.91
2023-05-10T06:35:22.995Z,100632.19
2023-05-10T06:37:50.655Z,100633.41
2023-05-10T06:40:18.184Z,100638.22
2023-05-10T06:42:46.153Z,100628.75
2023-05-10T06:45:13.833Z,100628.75
2023-05-10T06:47:41.448Z,100635.91
2023-05-10T06:50:15.156Z,100637.00
2023-05-10T06:52:42.136Z,100631.59
2023-05-10T06:55:09.825Z,100637.63
2023-05-10T06:57:36.701Z,100646.47
2023-05-10T07:00:07.503Z,100644.25
2023-05-10T07:02:34.529Z,100652.03
2023-05-10T07:05:15.416Z,100652.75
2023-05-10T07:07:42.444Z,100650.91
2023-05-10T07:10:10.071Z,100651.50
2023-05-10T07:12:36.931Z,100660.25
2023-05-10T07:15:04.289Z,100662.75
2023-05-10T07:17:31.199Z,100666.78
2023-05-10T07:19:58.237Z,100662.94
2023-05-10T07:22:25.059Z,100667.63
2023-05-10T07:24:51.920Z,100669.97
2023-05-10T07:27:18.712Z,100669.84
2023-05-10T07:29:45.812Z,100679.69
2023-05-10T07:32:12.618Z,100672.28
2023-05-10T07:34:39.454Z,100677.72
2023-05-10T07:37:07.220Z,100680.31
2023-05-10T07:39:34.095Z,100681.16
2023-05-10T07:42:00.873Z,100684.41
2023-05-10T07:44:27.664Z,100683.91
2023-05-10T07:46:54.615Z,100688.00
2023-05-10T07:49:21.433Z,100693.56
2023-05-10T07:51:48.382Z,100693.78
2023-05-10T07:54:15.316Z,100702.06
2023-05-10T07:56:46.528Z,100699.47
2023-05-10T07:59:18.064Z,100697.72
2023-05-10T08:01:46.151Z,100698.47
2023-05-10T08:04:13.094Z,100699.22
2023-05-10T08:06:41.520Z,100704.03
2023-05-10T08:09:09.247Z,100709.19
2023-05-10T08:11:36.256Z,100707.06
2023-05-10T08:14:03.185Z,100714.84
2023-05-10T08:16:30.152Z,100718.28
2023-05-10T08:18:57.220Z,100715.44
2023-05-10T08:21:24.095Z,100715.44
2023-05-10T08:23:50.987Z,100718.63
2023-05-10T08:26:17.860Z,100715.53
2023-05-10T08:28:44.719Z,100721.56
2023-05-10T08:31:11.599Z,100722.16
2023-05-10T08:33:38.493Z,100730.91
2023-05-10T08:36:05.472Z,100729.66
2023-05-10T08:38:32.339Z,100739.41
2023-05-10T08:41:00.421Z,100743.31
2023-05-10T08:43:31.401Z,100742.66
2023-05-10T08:46:05.095Z,100736.69
2023-05-10T08:48:36.243Z,100734.44
2023-05-10T08:51:05.379Z,100738.50
2023-05-10T08:53:37.935Z,100743.38
2023-05-10T08:56:05.552Z,100741.47
2023-05-10T08:58:33.072Z,100748.81
2023-05-10T09:01:02.375Z,100745.84
2023-05-10T09:03:29.482Z,100748.09
2023-05-10T09:05:59.527Z,100752.94
2023-05-10T09:08:27.906Z,100761.47
2023-05-10T09:10:56.361Z,100758.75
2023-05-10T09:13:25.768Z,100759.66
2023-05-10T09:15:54.150Z,100763.59
2023-05-10T09:18:21.155Z,100769.44
2023-05-10T09:20:50.070Z,100773.72
2023-05-10T09:23:17.167Z,100768.38
2023-05-10T09:25:43.987Z,100770.69
2023-05-10T09:28:11.114Z,100778.72
2023-05-10T09:30:38.289Z,100785.88
2023-05-10T09:33:05.702Z,100779.25
2023-05-10T09:35:34.487Z,100786.94
2023-05-10T09:38:04.928Z,100788.94
2023-05-10T09:40:32.700Z,100788.94
2023-05-10T09:43:07.075Z,100784.69
2023-05-10T09:45:38.528Z,100788.19
2023-05-10T09:48:06.962Z,100798.97
2023-05-10T09:50:35.211Z,100787.22
2023-05-10T09:53:04.673Z,100803.13
2023-05-10T09:55:51.540Z,100799.69
2023-05-10T09:58:19.290Z,100803.56
2023-05-10T10:00:48.840Z,100805.34
2023-05-10T10:03:21.703Z,100806.53
2023-05-10T10:05:49.801Z,100802.28
2023-05-10T10:08:18.507Z,100799.09
2023-05-10T10:10:47.178Z,100798.25
2023-05-10T10:13:15.079Z,100801.00
2023-05-10T10:15:44.790Z,100808.88
2023-05-10T10:18:16.567Z,100807.19
2023-05-10T10:20:43.928Z,100805.19
2023-05-10T10:23:10.871Z,100809.75
2023-05-10T10:25:39.604Z,100810.31
2023-05-10T10:28:36.638Z,100813.94
2023-05-10T10:31:28.897Z,100812.31
2023-05-10T10:34:08.279Z,100807.59
2023-05-10T10:37:06.282Z,100813.22
2023-05-10T10:39:33.706Z,100809.59
2023-05-10T10:42:01.053Z,100817.31
2023-05-10T10:44:40.029Z,100817.13
2023-05-10T10:47:13.276Z,100818.94
2023-05-10T10:49:49.359Z,100810.88
2023-05-10T10:52:42.185Z,100812.69
2023-05-10T10:55:23.471Z,100810.28
2023-05-10T10:57:55.737Z,100804.25
2023-05-10T11:00:34.464Z,100803.69
2023-05-10T11:03:09.656Z,100799.81
2023-05-10T11:05:50.690Z,100811.66
2023-05-10T11:08:29.272Z,100814.41
2023-05-10T11:11:01.913Z,100817.38
2023-05-10T11:13:39.880Z,100823.56
2023-05-10T11:16:16.832Z,100821.88
2023-05-10T11:19:08.706Z,100832.25
2023-05-10T11:22:12.295Z,100823.38
2023-05-10T11:24:39.148Z,100820.19
2023-05-10T11:27:07.406Z,100822.91
2023-05-10T11:29:34.274Z,100826.81
2023-05-10T11:32:01.372Z,100822.34
2023-05-10T11:34:35.542Z,100824.72
2023-05-10T11:37:02.614Z,100828.97
2023-05-10T11:39:32.039Z,100829.72
2023-05-10T11:42:00.263Z,100833.50
2023-05-10T11:44:34.081Z,100832.66
2023-05-10T11:47:02.184Z,100829.47
2023-05-10T11:49:29.253Z,100826.03
2023-05-10T11:52:08.925Z,100822.03
2023-05-10T11:54:36.242Z,100831.25
2023-05-10T11:57:03.881Z,100826.84
2023-05-10T11:59:30.839Z,100825.44
2023-05-10T12:01:58.228Z,100819.63
2023-05-10T12:04:25.978Z,100831.66
2023-05-10T12:06:53.052Z,100823.38
2023-05-10T12:09:31.481Z,100838.53
2023-05-10T12:12:06.865Z,100835.16
2023-05-10T12:14:36.360Z,100839.47
2023-05-10T12:17:03.385Z,100842.69
2023-05-10T12:19:40.998Z,100844.13
2023-05-10T12:22:08.017Z,100843.56
2023-05-10T12:24:41.574Z,100835.25
2023-05-10T12:27:13.346Z,100835.50
2023-05-10T12:29:45.349Z,100845.25
2023-05-10T12:32:12.516Z,100844.41
2023-05-10T12:34:39.629Z,100847.84
2023-05-10T12:37:06.598Z,100852.72
2023-05-10T12:39:45.638Z,100859.88
2023-05-10T12:42:13.121Z,100852.97
2023-05-10T12:44:40.905Z,100863.44
2023-05-10T12:47:08.068Z,100857.50
2023-05-10T12:49:35.148Z,100874.41
2023-05-10T12:52:02.377Z,100871.81
2023-05-10T12:54:29.269Z,100878.78
2023-05-10T12:56:56.164Z,100883.19
2023-05-10T12:59:23.883Z,100885.16
2023-05-10T13:01:50.901Z,100890.41
2023-05-10T13:04:17.777Z,100891.66
2023-05-10T13:06:44.769Z,100889.38
2023-05-10T13:09:11.612Z,100894.28
2023-05-10T13:11:38.727Z,100897.72
2023-05-10T13:14:05.503Z,100900.69
2023-05-10T13:16:32.900Z,100892.75
2023-05-10T13:19:00.234Z,100898.16
2023-05-10T13:21:28.446Z,100904.84
2023-05-10T13:23:56.559Z,100906.47
2023-05-10T13:26:23.818Z,100899.69
2023-05-10T13:28:52.811Z,100884.75
2023-05-10T13:31:19.828Z,100895.94
2023-05-10T13:33:46.698Z,100899.28
2023-05-10T13:36:13.579Z,100894.47
2023-05-10T13:38:40.522Z,100891.03
2023-05-10T13:41:07.392Z,100894.75
2023-05-10T13:43:34.212Z,100874.53
2023-05-10T13:46:01.184Z,100881.66
2023-05-10T13:48:28.222Z,100890.50
2023-05-10T13:50:55.214Z,100881.34
2023-05-10T13:53:22.179Z,100888.19
2023-05-10T13:55:50.401Z,100888.06
2023-05-10T13:58:17.202Z,100893.28
2023-05-10T14:00:44.015Z,100890.13
2023-05-10T14:03:12.075Z,100898.03
2023-05-10T14:05:39.524Z,100893.13
2023-05-10T14:08:06.486Z,100891.66
2023-05-10T14:10:33.351Z,100889.41
2023-05-10T14:13:00.266Z,100888.59
2023-05-10T14:15:27.018Z,100886.94
2023-05-10T14:17:53.949Z,100893.91
2023-05-10T14:20:20.768Z,100889.09
2023-05-10T14:22:47.700Z,100887.09
2023-05-10T14:25:16.093Z,100895.13
2023-05-10T14:27:43.100Z,100895.38
2023-05-10T14:30:10.691Z,100896.63
2023-05-10T14:32:40.420Z,100903.22
2023-05-10T14:35:08.994Z,100900.91
2023-05-10T14:37:37.985Z,100897.28
2023-05-10T14:40:05.560Z,100905.28
2023-05-10T14:42:32.522Z,100898.94
2023-05-10T14:44:59.553Z,100901.75
2023-05-10T14:47:26.458Z,100910.44
2023-05-10T14:49:53.266Z,100903.53
2023-05-10T14:52:20.099Z,100901.84
2023-05-10T14:54:47.247Z,100902.81
2023-05-10T14:57:14.067Z,100898.50
2023-05-10T14:59:40.837Z,100898.50
2023-05-10T15:02:09.373Z,100897.38
2023-05-10T15:04:36.666Z,100899.09
2023-05-10T15:07:04.073Z,100902.41
2023-05-10T15:09:30.982Z,100896.56
2023-05-10T15:11:57.760Z,100902.34
2023-05-10T15:14:24.575Z,100902.94
2023-05-10T15:16:51.336Z,100902.94
2023-05-10T15:19:18.189Z,100906.91
2023-05-10T15:21:45.580Z,100913.03
2023-05-10T15:24:12.501Z,100908.84
2023-05-10T15:26:39.325Z,100911.69
2023-05-10T15:29:06.147Z,100911.69
2023-05-10T15:31:35.806Z,100916.56
2023-05-10T15:34:02.918Z,100914.25
2023-05-10T15:36:29.690Z,100916.75
2023-05-10T15:38:56.897Z,100914.56
2023-05-10T15:41:24.494Z,100913.13
2023-05-10T15:43:51.434Z,100912.09
2023-05-10T15:46:18.220Z,100913.38
2023-05-10T15:48:45.066Z,100914.41
2023-05-10T15:51:12.218Z,100921.06
2023-05-10T15:53:42.445Z,100925.47
2023-05-10T15:56:13.977Z,100919.94
2023-05-10T15:58:41.861Z,100935.00
2023-05-10T16:01:08.766Z,100931.06
2023-05-10T16:03:37.499Z,100926.88
2023-05-10T16:06:04.870Z,100927.91
2023-05-10T16:08:33.568Z,100933.22
2023-05-10T16:11:01.083Z,100934.06
2023-05-10T16:13:29.473Z,100937.50
2023-05-10T16:15:58.165Z,100944.66
2023-05-10T16:18:25.239Z,100940.34
2023-05-10T16:20:53.677Z,100941.22
2023-05-10T16:23:20.614Z,100940.47
2023-05-10T16:25:47.440Z,100944.66
2023-05-10T16:28:14.329Z,100947.25
2023-05-10T16:30:41.181Z,100948.88
2023-05-10T16:33:08.105Z,100943.31
2023-05-10T16:35:34.910Z,100942.69
2023-05-10T16:38:01.799Z,100945.19
2023-05-10T16:40:28.779Z,100949.41
2023-05-10T16:42:55.590Z,100953.38
2023-05-10T16:45:24.185Z,100954.22
2023-05-10T16:47:51.072Z,100953.38
2023-05-10T16:50:17.898Z,100958.56
2023-05-10T16:52:44.669Z,100959.00
2023-05-10T16:55:11.489Z,100959.78
2023-05-10T16:57:38.266Z,100968.91
2023-05-10T17:00:06.140Z,100971.63
2023-05-10T17:02:33.111Z,100963.72
2023-05-10T17:05:00.017Z,100967.44
2023-05-10T17:07:29.342Z,100965.47
2023-05-10T17:09:56.631Z,100966.19
2023-05-10T17:12:23.702Z,100967.16
2023-05-10T17:14:50.854Z,100971.13
2023-05-10T17:17:17.823Z,100976.84
2023-05-10T17:19:47.531Z,100963.75
2023-05-10T17:22:14.679Z,100961.03
2023-05-10T17:24:43.459Z,100966.34
2023-05-10T17:27:10.524Z,100968.47
2023-05-10T17:29:37.577Z,100979.56
2023-05-10T17:32:04.632Z,100980.09
2023-05-10T17:34:31.502Z,100971.44
2023-05-10T17:36:58.240Z,100979.72
2023-05-10T17:39:25.191Z,100983.44
2023-05-10T17:41:52.019Z,100984.41
2023-05-10T17:44:19.004Z,100983.94
2023-05-10T17:46:45.767Z,100988.09
2023-05-10T17:49:12.529Z,100990.69
2023-05-10T17:51:41.369Z,100991.56
2023-05-10T17:54:08.220Z,100988.72
2023-05-10T17:56:35.076Z,100992.41
2023-05-10T17:59:03.327Z,100994.41
2023-05-10T18:01:30.090Z,100992.06
2023-05-10T18:03:56.915Z,100995.78
2023-05-10T18:06:23.976Z,100989.13
2023-05-10T18:08:50.912Z,100993.91
2023-05-10T18:11:17.857Z,100996.66
2023-05-10T18:13:44.591Z,100992.41
2023-05-10T18:16:13.340Z,100992.09
2023-05-10T18:18:40.229Z,100988.81
2023-05-10T18:21:07.049Z,100986.78
2023-05-10T18:23:34.018Z,100990.09
2023-05-10T18:26:02.242Z,100993.97
2023-05-10T18:28:29.070Z,100990.31
2023-05-10T18:30:55.963Z,100995.72
2023-05-10T18:33:22.829Z,100998.97
2023-05-10T18:35:49.868Z,101003.63
2023-05-10T18:38:16.804Z,100998.66
2023-05-10T18:40:43.630Z,101004.31
2023-05-10T18:43:10.723Z,101001.06
2023-05-10T18:45:39.020Z,101002.50
2023-05-10T18:48:06.732Z,101009.13
2023-05-10T18:50:33.658Z,101002.53
2023-05-10T18:53:00.465Z,101009.03
2023-05-10T18:55:27.946Z,101005.56
2023-05-10T18:57:54.710Z,101012.94
2023-05-10T19:00:22.680Z,101017.91
2023-05-10T19:02:49.588Z,101023.53
2023-05-10T19:05:16.596Z,101023.75
2023-05-10T19:07:43.968Z,101035.47
2023-05-10T19:10:15.229Z,101024.41
2023-05-10T19:12:42.244Z,101028.63
2023-05-10T19:15:10.421Z,101024.84
2023-05-10T19:17:38.784Z,101027.22
2023-05-10T19:20:07.130Z,101028.75
2023-05-10T19:22:47.121Z,101035.66
2023-05-10T19:25:21.554Z,101036.41
2023-05-10T19:27:48.421Z,101032.97
2023-05-10T19:30:15.323Z,101042.16
2023-05-10T19:32:44.198Z,101042.50
2023-05-10T19:35:13.254Z,101043.47
2023-05-10T19:37:40.551Z,101043.69
2023-05-10T19:40:09.711Z,101049.31
2023-05-10T19:42:36.720Z,101049.31
2023-05-10T19:45:03.852Z,101044.09
2023-05-10T19:47:30.813Z,101051.25
2023-05-10T19:49:57.786Z,101051.94
2023-05-10T19:52:24.640Z,101056.47
2023-05-10T19:54:51.494Z,101059.28
2023-05-10T19:57:18.528Z,101059.38
2023-05-10T19:59:45.320Z,101057.44
2023-05-10T20:02:12.126Z,101057.75
2023-05-10T20:04:38.913Z,101061.00
2023-05-10T20:07:05.764Z,101056.31
2023-05-10T20:09:32.649Z,101061.63
2023-05-10T20:11:59.539Z,101055.16
2023-05-10T20:14:26.799Z,101053.19
2023-05-10T20:17:01.389Z,101051.25
2023-05-10T20:19:28.302Z,101051.25
2023-05-10T20:21:58.627Z,101056.88
2023-05-10T20:24:25.419Z,101055.25
2023-05-10T20:26:52.333Z,101058.06
2023-05-10T20:29:19.116Z,101058.19
2023-05-10T20:31:45.948Z,101050.16
2023-05-10T20:34:13.230Z,101059.28
2023-05-10T20:36:40.101Z,101057.53
2023-05-10T20:39:06.864Z,101059.28
2023-05-10T20:41:33.676Z,101056.13
2023-05-10T20:44:00.709Z,101051.44
2023-05-10T20:46:27.688Z,101057.75
2023-05-10T20:48:54.564Z,101056.88
2023-05-10T20:51:21.371Z,101064.25
2023-05-10T20:53:48.262Z,101065.09
2023-05-10T20:56:15.136Z,101067.47
2023-05-10T20:58:41.934Z,101060.13
2023-05-10T21:01:08.767Z,101051.03
2023-05-10T21:03:35.721Z,101058.25
2023-05-10T21:06:02.547Z,101066.28
2023-05-10T21:08:29.333Z,101060.97
2023-05-10T21:10:56.241Z,101061.84
2023-05-10T21:13:23.017Z,101060.13
2023-05-10T21:15:50.002Z,101065.53
2023-05-10T21:18:16.893Z,101060.22
2023-05-10T21:20:43.702Z,101061.31
2023-05-10T21:23:10.556Z,101070.28
2023-05-10T21:25:37.571Z,101073.75
2023-05-10T21:28:04.611Z,101069.09
2023-05-10T21:30:32.836Z,101074.28
2023-05-10T21:33:00.331Z,101071.25
2023-05-10T21:35:27.289Z,101068.31
2023-05-10T21:37:54.158Z,101063.75
2023-05-10T21:40:21.115Z,101066.13
2023-05-10T21:42:49.673Z,101067.41
2023-05-10T21:45:17.484Z,101071.72
2023-05-10T21:47:44.322Z,101067.19
2023-05-10T21:50:12.652Z,101064.50
2023-05-10T21:52:40.011Z,101058.28
2023-05-10T21:55:08.663Z,101062.00
2023-05-10T21:57:36.552Z,101062.00
2023-05-10T22:00:03.732Z,101063.72
2023-05-10T22:02:31.369Z,101062.75
2023-05-10T22:04:58.509Z,101067.19
2023-05-10T22:07:25.356Z,101064.72
2023-05-10T22:09:52.108Z,101067.41
2023-05-10T22:12:19.094Z,101069.38
2023-05-10T22:14:46.001Z,101069.38
2023-05-10T22:17:13.601Z,101073.06
2023-05-10T22:19:40.506Z,101067.75
2023-05-10T22:22:07.362Z,101070.59
2023-05-10T22:24:34.630Z,101075.75
2023-05-10T22:27:03.068Z,101077.50
2023-05-10T22:29:30.494Z,101084.78
2023-05-10T22:31:58.160Z,101080.97
2023-05-10T22:34:25.300Z,101087.22
2023-05-10T22:36:52.510Z,101079.97
2023-05-10T22:39:19.255Z,101086.03
2023-05-10T22:41:46.046Z,101080.59
2023-05-10T22:44:12.828Z,101084.94
2023-05-10T22:46:39.747Z,101082.34
2023-05-10T22:49:06.937Z,101093.94
2023-05-10T22:51:34.671Z,101086.66
2023-05-10T22:54:01.429Z,101086.44
2023-05-10T22:56:28.424Z,101089.91
2023-05-10T22:58:57.530Z,101089.06
2023-05-10T23:01:24.691Z,101085.59
2023-05-10T23:03:51.793Z,101094.38
2023-05-10T23:06:18.589Z,101092.41
2023-05-10T23:08:45.398Z,101090.66
2023-05-10T23:11:12.662Z,101089.91
2023-05-10T23:13:39.487Z,101090.66
2023-05-10T23:16:06.755Z,101087.94
2023-05-10T23:18:33.999Z,101089.91
2023-05-10T23:21:00.840Z,101086.44
2023-05-10T23:23:27.751Z,101081.25
2023-05-10T23:25:54.648Z,101090.38
2023-05-10T23:28:21.635Z,101083.22
2023-05-10T23:30:56.243Z,101083.47
2023-05-10T23:33:24.467Z,101090.81
2023-05-10T23:35:51.538Z,101087.59
2023-05-10T23:38:18.328Z,101084.13
2023-05-10T23:40:49.826Z,101082.59
2023-05-10T23:43:19.713Z,101090.22
2023-05-10T23:45:57.864Z,101088.69
2023-05-10T23:48:24.919Z,101081.78
2023-05-10T23:50:51.800Z,101081.97
2023-05-10T23:53:19.062Z,101079.53
2023-05-10T23:55:45.910Z,101085.16
2023-05-10T23:58:12.746Z,101079.94
